sensor_id;sensor_type;location;lat;lon;timestamp;pressure;altitude;pressure_sealevel;temperature;humidity
74966;BME280;63522;47.928;21.042;2022-09-16T00:09:03;99083.52;;;26.64;49.57
74966;BME280;63522;47.928;21.042;2022-09-16T00:11:59;99092.33;;;26.63;49.57
74966;BME280;63522;47.928;21.042;2022-09-16T00:18:05;99087.24;;;26.62;49.36
74966;BME280;63522;47.928;21.042;2022-09-16T00:27:31;99081.10;;;26.59;49.45
74966;BME280;63522;47.928;21.042;2022-09-16T00:30:07;99074.36;;;26.59;49.56
74966;BME280;63522;47.928;21.042;2022-09-16T00:32:50;99079.17;;;26.59;49.63
74966;BME280;63522;47.928;21.042;2022-09-16T00:36:24;99087.98;;;26.58;49.41
74966;BME280;63522;47.928;21.042;2022-09-16T00:41:50;99083.27;;;26.56;49.50
74966;BME280;63522;47.928;21.042;2022-09-16T00:48:36;99085.65;;;26.55;49.59
74966;BME280;63522;47.928;21.042;2022-09-16T00:54:58;99098.86;;;26.53;49.34
74966;BME280;63522;47.928;21.042;2022-09-16T01:01:37;99116.36;;;26.52;49.79
74966;BME280;63522;47.928;21.042;2022-09-16T01:14:31;99113.60;;;26.51;49.71
74966;BME280;63522;47.928;21.042;2022-09-16T02:10:41;99181.61;;;26.43;49.41
74966;BME280;63522;47.928;21.042;2022-09-16T02:20:11;99193.88;;;26.42;49.43
74966;BME280;63522;47.928;21.042;2022-09-16T02:23:28;99198.73;;;26.41;49.57
74966;BME280;63522;47.928;21.042;2022-09-16T02:26:40;99189.92;;;26.41;49.54
74966;BME280;63522;47.928;21.042;2022-09-16T02:29:38;99185.43;;;26.41;49.56
74966;BME280;63522;47.928;21.042;2022-09-16T02:35:29;99177.98;;;26.41;49.47
74966;BME280;63522;47.928;21.042;2022-09-16T02:38:52;99185.48;;;26.41;49.81
74966;BME280;63522;47.928;21.042;2022-09-16T02:42:01;99193.28;;;26.40;49.61
74966;BME280;63522;47.928;21.042;2022-09-16T02:44:43;99191.69;;;26.39;49.53
74966;BME280;63522;47.928;21.042;2022-09-16T02:54:12;99190.92;;;26.39;49.75
74966;BME280;63522;47.928;21.042;2022-09-16T03:00:24;99192.32;;;26.39;49.50
74966;BME280;63522;47.928;21.042;2022-09-16T03:03:12;99197.26;;;26.39;49.75
74966;BME280;63522;47.928;21.042;2022-09-16T03:06:15;99193.60;;;26.38;49.47
74966;BME280;63522;47.928;21.042;2022-09-16T03:08:44;99194.48;;;26.38;49.74
74966;BME280;63522;47.928;21.042;2022-09-16T03:24:46;99185.20;;;26.36;49.82
74966;BME280;63522;47.928;21.042;2022-09-16T03:38:00;99170.24;;;26.34;49.79
74966;BME280;63522;47.928;21.042;2022-09-16T03:41:05;99175.24;;;26.35;49.48
74966;BME280;63522;47.928;21.042;2022-09-16T03:43:38;99172.52;;;26.35;49.45
74966;BME280;63522;47.928;21.042;2022-09-16T03:48:57;99165.86;;;26.34;49.70
74966;BME280;63522;47.928;21.042;2022-09-16T03:51:56;99167.46;;;26.34;49.56
74966;BME280;63522;47.928;21.042;2022-09-16T03:54:37;99170.33;;;26.33;49.82
74966;BME280;63522;47.928;21.042;2022-09-16T03:57:22;99174.00;;;26.33;49.61
74966;BME280;63522;47.928;21.042;2022-09-16T04:00:07;99182.92;;;26.33;49.65
74966;BME280;63522;47.928;21.042;2022-09-16T04:06:02;99189.48;;;26.32;49.71
74966;BME280;63522;47.928;21.042;2022-09-16T04:31:52;99212.06;;;26.29;49.60
74966;BME280;63522;47.928;21.042;2022-09-16T04:34:41;99217.91;;;26.29;49.71
74966;BME280;63522;47.928;21.042;2022-09-16T04:43:42;99219.23;;;26.29;49.56
74966;BME280;63522;47.928;21.042;2022-09-16T04:46:48;99220.30;;;26.30;49.61
74966;BME280;63522;47.928;21.042;2022-09-16T04:52:42;99238.39;;;26.31;49.74
74966;BME280;63522;47.928;21.042;2022-09-16T04:55:27;99245.34;;;26.31;49.61
74966;BME280;63522;47.928;21.042;2022-09-16T05:09:55;99261.92;;;26.31;49.60
74966;BME280;63522;47.928;21.042;2022-09-16T05:21:59;99275.34;;;26.31;49.38
74966;BME280;63522;47.928;21.042;2022-09-16T05:28:21;99268.39;;;26.32;49.66
74966;BME280;63522;47.928;21.042;2022-09-16T05:31:17;99276.19;;;26.33;49.63
74966;BME280;63522;47.928;21.042;2022-09-16T05:43:59;99273.52;;;26.47;49.43
74966;BME280;63522;47.928;21.042;2022-09-16T05:46:35;99271.36;;;26.50;49.51
74966;BME280;63522;47.928;21.042;2022-09-16T05:49:21;99263.10;;;26.54;49.21
74966;BME280;63522;47.928;21.042;2022-09-16T05:52:00;99265.27;;;26.56;49.31
74966;BME280;63522;47.928;21.042;2022-09-16T05:54:29;99262.50;;;26.58;49.15
74966;BME280;63522;47.928;21.042;2022-09-16T05:56:55;99265.11;;;26.62;49.28
74966;BME280;63522;47.928;21.042;2022-09-16T05:59:47;99260.69;;;26.64;49.15
74966;BME280;63522;47.928;21.042;2022-09-16T06:02:38;99259.54;;;26.67;49.22
74966;BME280;63522;47.928;21.042;2022-09-16T06:05:31;99266.27;;;26.71;48.87
74966;BME280;63522;47.928;21.042;2022-09-16T06:08:04;99273.70;;;26.75;49.07
74966;BME280;63522;47.928;21.042;2022-09-16T06:10:41;99273.42;;;26.77;48.99
74966;BME280;63522;47.928;21.042;2022-09-16T06:13:32;99272.83;;;26.79;48.67
74966;BME280;63522;47.928;21.042;2022-09-16T06:16:05;99279.35;;;26.83;48.92
74966;BME280;63522;47.928;21.042;2022-09-16T06:19:07;99273.49;;;26.85;48.72
74966;BME280;63522;47.928;21.042;2022-09-16T06:21:37;99270.24;;;26.89;48.81
74966;BME280;63522;47.928;21.042;2022-09-16T06:27:20;99268.66;;;26.94;48.49
74966;BME280;63522;47.928;21.042;2022-09-16T06:29:53;99270.13;;;26.97;48.67
74966;BME280;63522;47.928;21.042;2022-09-16T06:38:47;99279.20;;;27.06;48.28
74966;BME280;63522;47.928;21.042;2022-09-16T06:41:39;99274.35;;;27.09;48.39
74966;BME280;63522;47.928;21.042;2022-09-16T06:50:29;99280.05;;;27.16;48.20
74966;BME280;63522;47.928;21.042;2022-09-16T06:59:09;99304.45;;;27.21;48.33
74966;BME280;63522;47.928;21.042;2022-09-16T07:01:51;99299.87;;;27.23;47.97
74966;BME280;63522;47.928;21.042;2022-09-16T07:07:34;99285.27;;;27.29;47.95
74966;BME280;63522;47.928;21.042;2022-09-16T07:12:51;99303.03;;;27.35;47.86
74966;BME280;63522;47.928;21.042;2022-09-16T07:18:18;99304.85;;;27.39;47.75
74966;BME280;63522;47.928;21.042;2022-09-16T07:21:00;99300.59;;;27.42;47.69
74966;BME280;63522;47.928;21.042;2022-09-16T07:23:59;99310.79;;;27.45;47.76
74966;BME280;63522;47.928;21.042;2022-09-16T07:26:31;99316.95;;;27.47;47.61
74966;BME280;63522;47.928;21.042;2022-09-16T07:29:03;99312.95;;;27.47;47.57
74966;BME280;63522;47.928;21.042;2022-09-16T07:31:36;99308.46;;;27.48;47.62
74966;BME280;63522;47.928;21.042;2022-09-16T07:34:19;99312.64;;;27.48;47.65
74966;BME280;63522;47.928;21.042;2022-09-16T07:37:15;99315.95;;;27.47;47.45
74966;BME280;63522;47.928;21.042;2022-09-16T07:39:49;99309.84;;;27.46;47.47
74966;BME280;63522;47.928;21.042;2022-09-16T07:42:35;99308.63;;;27.46;47.52
74966;BME280;63522;47.928;21.042;2022-09-16T07:45:24;99305.81;;;27.45;47.47
74966;BME280;63522;47.928;21.042;2022-09-16T07:47:55;99305.21;;;27.43;47.74
74966;BME280;63522;47.928;21.042;2022-09-16T07:50:32;99309.83;;;27.44;47.58
74966;BME280;63522;47.928;21.042;2022-09-16T07:56:04;99316.14;;;27.41;47.56
74966;BME280;63522;47.928;21.042;2022-09-16T07:58:33;99324.50;;;27.40;47.41
74966;BME280;63522;47.928;21.042;2022-09-16T08:01:39;99326.88;;;27.39;47.76
74966;BME280;63522;47.928;21.042;2022-09-16T08:04:19;99332.54;;;27.39;47.95
74966;BME280;63522;47.928;21.042;2022-09-16T08:16:26;99328.84;;;27.40;48.10
74966;BME280;63522;47.928;21.042;2022-09-16T08:19:24;99329.20;;;27.41;48.01
74966;BME280;63522;47.928;21.042;2022-09-16T08:28:27;99339.09;;;27.43;48.18
74966;BME280;63522;47.928;21.042;2022-09-16T08:31:07;99341.69;;;27.41;48.30
74966;BME280;63522;47.928;21.042;2022-09-16T08:33:42;99341.52;;;27.41;48.35
74966;BME280;63522;47.928;21.042;2022-09-16T08:36:27;99339.06;;;27.39;48.33
74966;BME280;63522;47.928;21.042;2022-09-16T08:42:58;99339.13;;;27.38;48.39
74966;BME280;63522;47.928;21.042;2022-09-16T08:55:33;99336.60;;;27.35;48.50
74966;BME280;63522;47.928;21.042;2022-09-16T08:58:44;99336.81;;;27.35;48.41
74966;BME280;63522;47.928;21.042;2022-09-16T09:18:50;99329.69;;;27.35;49.84
74966;BME280;63522;47.928;21.042;2022-09-16T09:35:14;99332.59;;;27.21;48.57
74966;BME280;63522;47.928;21.042;2022-09-16T09:42:24;99334.64;;;27.19;49.77
74966;BME280;63522;47.928;21.042;2022-09-16T09:51:16;99326.98;;;27.20;50.39
74966;BME280;63522;47.928;21.042;2022-09-16T10:11:18;99318.96;;;27.29;50.55
74966;BME280;63522;47.928;21.042;2022-09-16T10:25:16;99329.52;;;27.25;50.40
74966;BME280;63522;47.928;21.042;2022-09-16T10:35:31;99346.27;;;27.14;47.59
74966;BME280;63522;47.928;21.042;2022-09-16T10:38:34;99349.52;;;27.08;46.41
74966;BME280;63522;47.928;21.042;2022-09-16T10:41:16;99356.68;;;27.03;45.68
74966;BME280;63522;47.928;21.042;2022-09-16T10:44:18;99358.42;;;26.98;45.00
74966;BME280;63522;47.928;21.042;2022-09-16T10:50:14;99354.85;;;26.88;44.09
74966;BME280;63522;47.928;21.042;2022-09-16T10:52:45;99357.39;;;26.84;44.44
74966;BME280;63522;47.928;21.042;2022-09-16T10:56:13;99355.28;;;26.81;43.75
74966;BME280;63522;47.928;21.042;2022-09-16T10:59:47;99355.55;;;26.77;43.73
74966;BME280;63522;47.928;21.042;2022-09-16T12:01:31;99317.86;;;26.83;46.74
74966;BME280;63522;47.928;21.042;2022-09-16T12:07:03;99313.77;;;26.83;46.85
74966;BME280;63522;47.928;21.042;2022-09-16T12:09:41;99308.46;;;26.83;46.77
74966;BME280;63522;47.928;21.042;2022-09-16T12:12:20;99301.21;;;26.83;47.05
74966;BME280;63522;47.928;21.042;2022-09-16T12:14:54;99303.53;;;26.84;46.94
74966;BME280;63522;47.928;21.042;2022-09-16T12:17:27;99303.27;;;26.84;47.30
74966;BME280;63522;47.928;21.042;2022-09-16T12:23:34;99304.52;;;26.86;47.28
74966;BME280;63522;47.928;21.042;2022-09-16T12:26:09;99304.58;;;26.87;46.94
74966;BME280;63522;47.928;21.042;2022-09-16T12:28:55;99300.80;;;26.86;47.26
74966;BME280;63522;47.928;21.042;2022-09-16T12:31:32;99298.80;;;26.88;47.28
74966;BME280;63522;47.928;21.042;2022-09-16T12:34:24;99303.95;;;26.87;47.11
74966;BME280;63522;47.928;21.042;2022-09-16T12:37:05;99306.02;;;26.87;47.06
74966;BME280;63522;47.928;21.042;2022-09-16T12:39:32;99298.95;;;26.87;47.30
74966;BME280;63522;47.928;21.042;2022-09-16T12:47:58;99288.95;;;26.86;47.24
74966;BME280;63522;47.928;21.042;2022-09-16T12:53:59;99280.41;;;26.86;47.27
74966;BME280;63522;47.928;21.042;2022-09-16T12:56:38;99282.81;;;26.86;47.25
74966;BME280;63522;47.928;21.042;2022-09-16T13:01:43;99278.05;;;26.86;47.16
74966;BME280;63522;47.928;21.042;2022-09-16T13:04:17;99270.83;;;26.86;47.17
74966;BME280;63522;47.928;21.042;2022-09-16T13:06:55;99263.83;;;26.87;47.34
74966;BME280;63522;47.928;21.042;2022-09-16T13:09:31;99259.48;;;26.87;47.14
74966;BME280;63522;47.928;21.042;2022-09-16T13:12:25;99254.40;;;26.86;47.02
74966;BME280;63522;47.928;21.042;2022-09-16T13:15:19;99250.52;;;26.87;47.21
74966;BME280;63522;47.928;21.042;2022-09-16T13:17:52;99255.40;;;26.87;47.02
74966;BME280;63522;47.928;21.042;2022-09-16T13:20:33;99249.64;;;26.86;47.07
74966;BME280;63522;47.928;21.042;2022-09-16T13:25:42;99255.11;;;26.84;47.01
74966;BME280;63522;47.928;21.042;2022-09-16T13:28:35;99252.77;;;26.82;47.07
74966;BME280;63522;47.928;21.042;2022-09-16T13:33:37;99242.84;;;26.84;47.41
74966;BME280;63522;47.928;21.042;2022-09-16T13:39:01;99241.46;;;26.86;47.01
74966;BME280;63522;47.928;21.042;2022-09-16T13:44:40;99237.05;;;26.85;46.56
74966;BME280;63522;47.928;21.042;2022-09-16T13:49:59;99244.85;;;26.85;47.11
74966;BME280;63522;47.928;21.042;2022-09-16T13:52:31;99244.85;;;26.85;46.97
74966;BME280;63522;47.928;21.042;2022-09-16T13:55:00;99244.46;;;26.85;46.78
74966;BME280;63522;47.928;21.042;2022-09-16T13:58:12;99239.58;;;26.85;46.97
74966;BME280;63522;47.928;21.042;2022-09-16T14:03:35;99237.30;;;26.83;47.01
74966;BME280;63522;47.928;21.042;2022-09-16T14:09:02;99240.66;;;26.83;46.83
74966;BME280;63522;47.928;21.042;2022-09-16T14:11:39;99235.30;;;26.82;46.95
74966;BME280;63522;47.928;21.042;2022-09-16T14:14:16;99228.98;;;26.81;46.91
74966;BME280;63522;47.928;21.042;2022-09-16T14:16:45;99232.69;;;26.81;46.73
74966;BME280;63522;47.928;21.042;2022-09-16T14:21:42;99235.11;;;26.77;45.35
74966;BME280;63522;47.928;21.042;2022-09-16T14:27:04;99228.80;;;26.65;43.31
74966;BME280;63522;47.928;21.042;2022-09-16T14:32:16;99216.88;;;26.56;43.02
74966;BME280;63522;47.928;21.042;2022-09-16T14:34:44;99213.33;;;26.57;43.16
74966;BME280;63522;47.928;21.042;2022-09-16T14:37:21;99215.20;;;26.55;43.00
74966;BME280;63522;47.928;21.042;2022-09-16T14:39:50;99213.13;;;26.53;43.32
74966;BME280;63522;47.928;21.042;2022-09-16T14:42:19;99214.77;;;26.53;43.59
74966;BME280;63522;47.928;21.042;2022-09-16T14:51:04;99208.15;;;26.51;44.36
74966;BME280;63522;47.928;21.042;2022-09-16T14:53:37;99201.88;;;26.52;44.56
74966;BME280;63522;47.928;21.042;2022-09-16T14:56:04;99198.27;;;26.54;44.61
74966;BME280;63522;47.928;21.042;2022-09-16T14:59:13;99200.73;;;26.57;44.65
74966;BME280;63522;47.928;21.042;2022-09-16T15:01:57;99204.29;;;26.58;44.68
74966;BME280;63522;47.928;21.042;2022-09-16T15:04:38;99214.34;;;26.59;45.28
74966;BME280;63522;47.928;21.042;2022-09-16T15:07:23;99212.03;;;26.59;45.22
74966;BME280;63522;47.928;21.042;2022-09-16T15:13:13;99205.55;;;26.59;45.95
74966;BME280;63522;47.928;21.042;2022-09-16T15:22:23;99206.19;;;26.60;46.95
74966;BME280;63522;47.928;21.042;2022-09-16T15:25:02;99206.17;;;26.61;47.18
74966;BME280;63522;47.928;21.042;2022-09-16T15:27:42;99204.71;;;26.64;47.36
74966;BME280;63522;47.928;21.042;2022-09-16T15:30:29;99196.34;;;26.66;47.60
74966;BME280;63522;47.928;21.042;2022-09-16T15:33:54;99195.44;;;26.68;47.85
74966;BME280;63522;47.928;21.042;2022-09-16T15:40:36;99196.61;;;26.71;48.15
74966;BME280;63522;47.928;21.042;2022-09-16T15:52:24;99208.60;;;26.78;48.67
74966;BME280;63522;47.928;21.042;2022-09-16T15:55:50;99215.80;;;26.78;48.93
74966;BME280;63522;47.928;21.042;2022-09-16T15:58:10;99207.15;;;26.79;48.91
74966;BME280;63522;47.928;21.042;2022-09-16T16:04:12;99199.73;;;26.79;48.53
74966;BME280;63522;47.928;21.042;2022-09-16T16:09:50;99205.20;;;26.80;48.50
74966;BME280;63522;47.928;21.042;2022-09-16T16:15:29;99200.67;;;26.80;48.45
74966;BME280;63522;47.928;21.042;2022-09-16T16:18:01;99200.36;;;26.81;48.17
74966;BME280;63522;47.928;21.042;2022-09-16T16:20:32;99200.33;;;26.81;48.34
74966;BME280;63522;47.928;21.042;2022-09-16T16:23:15;99202.11;;;26.80;48.01
74966;BME280;63522;47.928;21.042;2022-09-16T16:25:54;99196.74;;;26.81;47.90
74966;BME280;63522;47.928;21.042;2022-09-16T16:28:25;99202.46;;;26.80;47.76
74966;BME280;63522;47.928;21.042;2022-09-16T16:30:54;99202.06;;;26.78;47.75
74966;BME280;63522;47.928;21.042;2022-09-16T16:33:34;99200.38;;;26.75;48.02
74966;BME280;63522;47.928;21.042;2022-09-16T16:36:00;99203.02;;;26.73;47.90
74966;BME280;63522;47.928;21.042;2022-09-16T16:38:29;99211.69;;;26.72;47.69
74966;BME280;63522;47.928;21.042;2022-09-16T16:40:58;99205.23;;;26.70;47.52
74966;BME280;63522;47.928;21.042;2022-09-16T16:43:44;99206.91;;;26.70;47.48
74966;BME280;63522;47.928;21.042;2022-09-16T16:46:12;99207.42;;;26.70;47.67
74966;BME280;63522;47.928;21.042;2022-09-16T16:51:17;99194.41;;;26.69;47.68
74966;BME280;63522;47.928;21.042;2022-09-16T16:53:46;99191.86;;;26.68;47.48
74966;BME280;63522;47.928;21.042;2022-09-16T16:56:15;99193.34;;;26.64;47.37
74966;BME280;63522;47.928;21.042;2022-09-16T16:58:46;99196.16;;;26.63;47.66
74966;BME280;63522;47.928;21.042;2022-09-16T17:01:14;99187.38;;;26.61;47.47
74966;BME280;63522;47.928;21.042;2022-09-16T17:03:42;99187.05;;;26.59;47.55
74966;BME280;63522;47.928;21.042;2022-09-16T17:06:09;99187.78;;;26.57;47.75
74966;BME280;63522;47.928;21.042;2022-09-16T17:08:38;99195.14;;;26.56;47.48
74966;BME280;63522;47.928;21.042;2022-09-16T17:11:18;99197.90;;;26.54;47.60
74966;BME280;63522;47.928;21.042;2022-09-16T17:13:47;99203.58;;;26.52;47.47
74966;BME280;63522;47.928;21.042;2022-09-16T17:16:17;99205.61;;;26.51;47.34
74966;BME280;63522;47.928;21.042;2022-09-16T17:18:44;99206.02;;;26.49;47.36
74966;BME280;63522;47.928;21.042;2022-09-16T17:21:18;99202.11;;;26.48;47.16
74966;BME280;63522;47.928;21.042;2022-09-16T17:23:45;99202.35;;;26.47;47.25
74966;BME280;63522;47.928;21.042;2022-09-16T17:26:11;99207.09;;;26.46;46.92
74966;BME280;63522;47.928;21.042;2022-09-16T17:28:44;99207.20;;;26.44;47.00
74966;BME280;63522;47.928;21.042;2022-09-16T17:31:14;99203.09;;;26.42;47.04
74966;BME280;63522;47.928;21.042;2022-09-16T17:33:41;99199.58;;;26.41;47.19
74966;BME280;63522;47.928;21.042;2022-09-16T17:36:08;99203.08;;;26.40;47.11
74966;BME280;63522;47.928;21.042;2022-09-16T17:38:34;99204.73;;;26.40;47.18
74966;BME280;63522;47.928;21.042;2022-09-16T17:41:12;99206.77;;;26.39;47.25
74966;BME280;63522;47.928;21.042;2022-09-16T17:43:48;99204.05;;;26.37;46.85
74966;BME280;63522;47.928;21.042;2022-09-16T17:46:18;99205.59;;;26.36;46.53
74966;BME280;63522;47.928;21.042;2022-09-16T17:48:46;99205.15;;;26.34;46.13
74966;BME280;63522;47.928;21.042;2022-09-16T17:51:14;99205.45;;;26.31;45.63
74966;BME280;63522;47.928;21.042;2022-09-16T17:53:40;99197.78;;;26.29;45.08
74966;BME280;63522;47.928;21.042;2022-09-16T17:56:08;99206.20;;;26.27;44.73
74966;BME280;63522;47.928;21.042;2022-09-16T17:58:38;99208.52;;;26.23;44.37
74966;BME280;63522;47.928;21.042;2022-09-16T18:01:09;99218.11;;;26.20;44.27
74966;BME280;63522;47.928;21.042;2022-09-16T18:03:40;99215.61;;;26.18;43.93
74966;BME280;63522;47.928;21.042;2022-09-16T18:06:20;99211.48;;;26.15;43.77
74966;BME280;63522;47.928;21.042;2022-09-16T18:08:50;99202.33;;;26.13;43.61
74966;BME280;63522;47.928;21.042;2022-09-16T18:11:17;99199.80;;;26.11;43.48
74966;BME280;63522;47.928;21.042;2022-09-16T18:13:51;99202.60;;;26.09;43.35
74966;BME280;63522;47.928;21.042;2022-09-16T18:16:18;99205.04;;;26.06;42.93
74966;BME280;63522;47.928;21.042;2022-09-16T18:18:48;99211.25;;;26.04;43.01
74966;BME280;63522;47.928;21.042;2022-09-16T18:21:14;99210.17;;;26.02;42.98
74966;BME280;63522;47.928;21.042;2022-09-16T18:23:45;99214.36;;;26.01;43.13
74966;BME280;63522;47.928;21.042;2022-09-16T18:26:14;99214.98;;;26.01;43.12
74966;BME280;63522;47.928;21.042;2022-09-16T18:28:42;99213.22;;;25.99;43.33
74966;BME280;63522;47.928;21.042;2022-09-16T18:31:16;99213.73;;;25.98;43.20
74966;BME280;63522;47.928;21.042;2022-09-16T18:33:45;99205.34;;;25.97;43.31
74966;BME280;63522;47.928;21.042;2022-09-16T18:36:18;99206.17;;;25.97;43.27
74966;BME280;63522;47.928;21.042;2022-09-16T18:38:49;99202.02;;;25.99;43.24
74966;BME280;63522;47.928;21.042;2022-09-16T18:41:18;99195.91;;;26.01;43.18
74966;BME280;63522;47.928;21.042;2022-09-16T18:43:46;99191.80;;;26.05;43.10
74966;BME280;63522;47.928;21.042;2022-09-16T18:46:23;99187.59;;;26.08;42.60
74966;BME280;63522;47.928;21.042;2022-09-16T18:48:52;99179.95;;;26.09;42.57
74966;BME280;63522;47.928;21.042;2022-09-16T18:51:19;99175.04;;;26.11;42.38
74966;BME280;63522;47.928;21.042;2022-09-16T18:53:46;99179.63;;;26.11;42.29
74966;BME280;63522;47.928;21.042;2022-09-16T18:56:16;99180.15;;;26.13;42.42
74966;BME280;63522;47.928;21.042;2022-09-16T18:58:42;99185.58;;;26.13;42.12
74966;BME280;63522;47.928;21.042;2022-09-16T19:01:38;99192.98;;;26.13;42.09
74966;BME280;63522;47.928;21.042;2022-09-16T19:04:06;99186.18;;;26.13;42.02
74966;BME280;63522;47.928;21.042;2022-09-16T19:06:41;99191.24;;;26.14;41.86
74966;BME280;63522;47.928;21.042;2022-09-16T19:09:11;99191.91;;;26.15;42.09
74966;BME280;63522;47.928;21.042;2022-09-16T19:11:38;99191.73;;;26.16;42.14
74966;BME280;63522;47.928;21.042;2022-09-16T19:14:05;99194.57;;;26.17;42.10
74966;BME280;63522;47.928;21.042;2022-09-16T19:16:35;99203.78;;;26.18;42.34
74966;BME280;63522;47.928;21.042;2022-09-16T19:19:15;99206.45;;;26.20;42.41
74966;BME280;63522;47.928;21.042;2022-09-16T19:21:53;99213.52;;;26.20;42.27
74966;BME280;63522;47.928;21.042;2022-09-16T19:24:28;99219.14;;;26.21;42.27
74966;BME280;63522;47.928;21.042;2022-09-16T19:27:14;99215.98;;;26.22;42.38
74966;BME280;63522;47.928;21.042;2022-09-16T19:33:14;99197.52;;;26.23;42.34
74966;BME280;63522;47.928;21.042;2022-09-16T19:36:00;99199.74;;;26.25;42.30
74966;BME280;63522;47.928;21.042;2022-09-16T19:38:48;99197.29;;;26.25;42.04
74966;BME280;63522;47.928;21.042;2022-09-16T19:41:23;99192.65;;;26.26;42.34
74966;BME280;63522;47.928;21.042;2022-09-16T19:43:57;99197.11;;;26.26;42.22
74966;BME280;63522;47.928;21.042;2022-09-16T19:46:31;99198.82;;;26.27;42.14
74966;BME280;63522;47.928;21.042;2022-09-16T19:48:57;99192.84;;;26.27;41.95
74966;BME280;63522;47.928;21.042;2022-09-16T19:51:34;99194.65;;;26.27;41.96
74966;BME280;63522;47.928;21.042;2022-09-16T19:54:14;99195.03;;;26.27;42.03
74966;BME280;63522;47.928;21.042;2022-09-16T19:56:44;99195.20;;;26.27;41.92
74966;BME280;63522;47.928;21.042;2022-09-16T19:59:13;99198.41;;;26.26;41.83
74966;BME280;63522;47.928;21.042;2022-09-16T20:01:39;99197.67;;;26.25;41.96
74966;BME280;63522;47.928;21.042;2022-09-16T20:04:14;99207.85;;;26.22;42.05
74966;BME280;63522;47.928;21.042;2022-09-16T20:07:04;99217.68;;;26.20;42.22
74966;BME280;63522;47.928;21.042;2022-09-16T20:09:30;99218.96;;;26.19;42.24
74966;BME280;63522;47.928;21.042;2022-09-16T20:11:59;99216.27;;;26.19;42.29
74966;BME280;63522;47.928;21.042;2022-09-16T20:14:30;99210.45;;;26.16;42.51
74966;BME280;63522;47.928;21.042;2022-09-16T20:16:58;99195.94;;;26.16;42.49
74966;BME280;63522;47.928;21.042;2022-09-16T20:19:46;99181.30;;;26.15;42.47
74966;BME280;63522;47.928;21.042;2022-09-16T20:22:20;99186.58;;;26.13;42.56
74966;BME280;63522;47.928;21.042;2022-09-16T20:24:46;99194.09;;;26.12;42.51
74966;BME280;63522;47.928;21.042;2022-09-16T20:30:02;99199.63;;;26.10;42.47
74966;BME280;63522;47.928;21.042;2022-09-16T20:32:28;99201.13;;;26.09;42.58
74966;BME280;63522;47.928;21.042;2022-09-16T20:34:54;99200.29;;;26.09;42.63
74966;BME280;63522;47.928;21.042;2022-09-16T20:37:29;99209.40;;;26.08;42.90
74966;BME280;63522;47.928;21.042;2022-09-16T20:40:06;99218.30;;;26.07;42.90
74966;BME280;63522;47.928;21.042;2022-09-16T20:42:32;99228.42;;;26.07;42.89
74966;BME280;63522;47.928;21.042;2022-09-16T20:44:58;99229.10;;;26.06;43.12
74966;BME280;63522;47.928;21.042;2022-09-16T20:47:24;99220.95;;;26.06;42.93
74966;BME280;63522;47.928;21.042;2022-09-16T20:50:05;99217.50;;;26.06;43.02
74966;BME280;63522;47.928;21.042;2022-09-16T20:52:31;99208.00;;;26.05;43.02
74966;BME280;63522;47.928;21.042;2022-09-16T20:54:57;99206.58;;;26.04;43.16
74966;BME280;63522;47.928;21.042;2022-09-16T20:57:53;99211.88;;;26.04;43.01
74966;BME280;63522;47.928;21.042;2022-09-16T21:00:26;99213.52;;;26.04;43.12
74966;BME280;63522;47.928;21.042;2022-09-16T21:02:57;99210.75;;;26.03;42.97
74966;BME280;63522;47.928;21.042;2022-09-16T21:08:25;99207.09;;;26.03;43.14
74966;BME280;63522;47.928;21.042;2022-09-16T21:10:57;99211.60;;;26.03;43.15
74966;BME280;63522;47.928;21.042;2022-09-16T21:13:25;99208.91;;;26.02;43.41
74966;BME280;63522;47.928;21.042;2022-09-16T21:16:02;99197.69;;;26.02;43.37
74966;BME280;63522;47.928;21.042;2022-09-16T21:18:39;99197.30;;;26.02;43.36
74966;BME280;63522;47.928;21.042;2022-09-16T21:21:17;99206.18;;;26.01;43.56
74966;BME280;63522;47.928;21.042;2022-09-16T21:23:48;99218.27;;;26.01;43.44
74966;BME280;63522;47.928;21.042;2022-09-16T21:26:26;99226.55;;;26.02;43.59
74966;BME280;63522;47.928;21.042;2022-09-16T21:28:59;99214.27;;;26.02;43.55
74966;BME280;63522;47.928;21.042;2022-09-16T21:31:31;99228.33;;;26.02;43.65
74966;BME280;63522;47.928;21.042;2022-09-16T21:33:59;99234.92;;;26.02;43.60
74966;BME280;63522;47.928;21.042;2022-09-16T21:36:30;99241.23;;;26.02;43.64
74966;BME280;63522;47.928;21.042;2022-09-16T21:38:56;99244.43;;;26.03;43.58
74966;BME280;63522;47.928;21.042;2022-09-16T21:41:33;99238.27;;;26.01;43.50
74966;BME280;63522;47.928;21.042;2022-09-16T21:43:59;99238.18;;;25.99;42.59
74966;BME280;63522;47.928;21.042;2022-09-16T21:46:40;99240.84;;;25.98;42.85
74966;BME280;63522;47.928;21.042;2022-09-16T21:49:18;99234.50;;;26.01;43.05
74966;BME280;63522;47.928;21.042;2022-09-16T21:54:30;99226.36;;;26.04;43.30
74966;BME280;63522;47.928;21.042;2022-09-16T21:57:22;99224.10;;;26.05;43.60
74966;BME280;63522;47.928;21.042;2022-09-16T21:59:56;99226.95;;;26.07;43.52
74966;BME280;63522;47.928;21.042;2022-09-16T22:02:27;99238.11;;;26.09;43.68
74966;BME280;63522;47.928;21.042;2022-09-16T22:05:00;99240.04;;;26.11;43.98
74966;BME280;63522;47.928;21.042;2022-09-16T22:07:33;99243.80;;;26.13;44.24
74966;BME280;63522;47.928;21.042;2022-09-16T22:10:18;99238.52;;;26.14;44.22
74966;BME280;63522;47.928;21.042;2022-09-16T22:12:58;99227.02;;;26.15;44.17
74966;BME280;63522;47.928;21.042;2022-09-16T22:15:29;99221.29;;;26.18;44.28
74966;BME280;63522;47.928;21.042;2022-09-16T22:18:02;99221.52;;;26.20;44.14
74966;BME280;63522;47.928;21.042;2022-09-16T22:23:18;99234.00;;;26.22;44.36
74966;BME280;63522;47.928;21.042;2022-09-16T22:25:48;99237.00;;;26.24;44.43